sensor_id;sensor_type;location;lat;lon;timestamp;pressure;altitude;pressure_sealevel;temperature;humidity
40245;BME280;25963;42.694;23.600;2022-09-12T00:01:42;94961.72;;;17.91;100.00
40245;BME280;25963;42.694;23.600;2022-09-12T00:04:08;94962.78;;;18.00;100.00
40245;BME280;25963;42.694;23.600;2022-09-12T00:06:35;94962.81;;;17.95;100.00
40245;BME280;25963;42.694;23.600;2022-09-12T00:09:02;94971.34;;;17.87;100.00
40245;BME280;25963;42.694;23.600;2022-09-12T00:11:28;94970.81;;;17.90;100.00
40245;BME280;25963;42.694;23.600;2022-09-12T00:13:57;94970.50;;;17.76;100.00
40245;BME280;25963;42.694;23.600;2022-09-12T00:16:23;94983.03;;;17.60;100.00
40245;BME280;25963;42.694;23.600;2022-09-12T00:18:49;94989.97;;;17.51;100.00
40245;BME280;25963;42.694;23.600;2022-09-12T00:21:15;94990.50;;;17.58;100.00
40245;BME280;25963;42.694;23.600;2022-09-12T00:23:40;94992.09;;;17.49;100.00
40245;BME280;25963;42.694;23.600;2022-09-12T00:26:06;94995.28;;;17.41;100.00
40245;BME280;25963;42.694;23.600;2022-09-12T00:28:32;94987.19;;;17.05;100.00
40245;BME280;25963;42.694;23.600;2022-09-12T00:30:58;94989.94;;;17.30;100.00
40245;BME280;25963;42.694;23.600;2022-09-12T00:33:23;94990.19;;;17.34;100.00
40245;BME280;25963;42.694;23.600;2022-09-12T00:35:49;94986.72;;;17.18;100.00
40245;BME280;25963;42.694;23.600;2022-09-12T00:38:17;94993.94;;;17.33;100.00
40245;BME280;25963;42.694;23.600;2022-09-12T00:40:43;94988.09;;;17.46;100.00
40245;BME280;25963;42.694;23.600;2022-09-12T00:45:52;94990.22;;;17.44;100.00
40245;BME280;25963;42.694;23.600;2022-09-12T00:48:20;94984.06;;;17.33;100.00
40245;BME280;25963;42.694;23.600;2022-09-12T00:50:50;94989.66;;;17.37;100.00
40245;BME280;25963;42.694;23.600;2022-09-12T00:53:16;94988.53;;;17.07;100.00
40245;BME280;25963;42.694;23.600;2022-09-12T00:55:42;94994.59;;;16.87;100.00
40245;BME280;25963;42.694;23.600;2022-09-12T00:58:22;94996.75;;;16.91;100.00
40245;BME280;25963;42.694;23.600;2022-09-12T01:00:49;94987.72;;;17.07;100.00
40245;BME280;25963;42.694;23.600;2022-09-12T01:03:16;94991.16;;;16.92;100.00
40245;BME280;25963;42.694;23.600;2022-09-12T01:05:43;94995.69;;;16.92;100.00
40245;BME280;25963;42.694;23.600;2022-09-12T01:08:12;94988.44;;;16.87;100.00
40245;BME280;25963;42.694;23.600;2022-09-12T01:10:37;94983.44;;;16.91;100.00
40245;BME280;25963;42.694;23.600;2022-09-12T01:13:05;94982.09;;;16.88;100.00
40245;BME280;25963;42.694;23.600;2022-09-12T01:15:30;94978.00;;;16.75;100.00
40245;BME280;25963;42.694;23.600;2022-09-12T01:30:44;94975.75;;;16.47;100.00
40245;BME280;25963;42.694;23.600;2022-09-12T01:38:37;94978.88;;;16.33;100.00
40245;BME280;25963;42.694;23.600;2022-09-12T01:43:34;94981.03;;;16.36;100.00
40245;BME280;25963;42.694;23.600;2022-09-12T01:48:29;94970.81;;;16.23;100.00
40245;BME280;25963;42.694;23.600;2022-09-12T01:51:07;94973.78;;;16.32;100.00
40245;BME280;25963;42.694;23.600;2022-09-12T01:53:35;94964.69;;;16.23;100.00
40245;BME280;25963;42.694;23.600;2022-09-12T01:58:29;94956.38;;;16.14;100.00
40245;BME280;25963;42.694;23.600;2022-09-12T02:01:03;94953.16;;;16.12;100.00
40245;BME280;25963;42.694;23.600;2022-09-12T02:03:31;94960.91;;;16.13;100.00
40245;BME280;25963;42.694;23.600;2022-09-12T02:08:43;94954.53;;;16.14;100.00
40245;BME280;25963;42.694;23.600;2022-09-12T02:11:11;94962.13;;;15.95;100.00
40245;BME280;25963;42.694;23.600;2022-09-12T02:16:05;94970.69;;;16.03;100.00
40245;BME280;25963;42.694;23.600;2022-09-12T02:18:32;94969.94;;;15.75;100.00
40245;BME280;25963;42.694;23.600;2022-09-12T02:20:58;94970.09;;;15.95;100.00
40245;BME280;25963;42.694;23.600;2022-09-12T02:23:26;94970.03;;;15.58;100.00
40245;BME280;25963;42.694;23.600;2022-09-12T02:25:56;94976.56;;;15.45;100.00
40245;BME280;25963;42.694;23.600;2022-09-12T02:28:25;94971.53;;;15.44;100.00
40245;BME280;25963;42.694;23.600;2022-09-12T02:33:19;94966.88;;;15.61;100.00
40245;BME280;25963;42.694;23.600;2022-09-12T02:35:53;94972.19;;;15.61;100.00
40245;BME280;25963;42.694;23.600;2022-09-12T02:38:25;94974.69;;;15.68;100.00
40245;BME280;25963;42.694;23.600;2022-09-12T02:40:54;94988.78;;;15.41;100.00
40245;BME280;25963;42.694;23.600;2022-09-12T02:43:20;94994.81;;;15.37;100.00
40245;BME280;25963;42.694;23.600;2022-09-12T02:45:45;94993.13;;;15.52;100.00
40245;BME280;25963;42.694;23.600;2022-09-12T02:50:36;94995.28;;;15.56;100.00
40245;BME280;25963;42.694;23.600;2022-09-12T02:53:01;94996.28;;;15.49;100.00
40245;BME280;25963;42.694;23.600;2022-09-12T02:55:32;94999.75;;;15.77;100.00
40245;BME280;25963;42.694;23.600;2022-09-12T02:57:59;94996.94;;;15.62;100.00
40245;BME280;25963;42.694;23.600;2022-09-12T03:00:25;94993.66;;;15.55;100.00
40245;BME280;25963;42.694;23.600;2022-09-12T03:15:21;94992.31;;;15.52;100.00
40245;BME280;25963;42.694;23.600;2022-09-12T03:22:50;95004.16;;;15.39;100.00
40245;BME280;25963;42.694;23.600;2022-09-12T03:25:31;95009.41;;;15.61;100.00
40245;BME280;25963;42.694;23.600;2022-09-12T03:28:00;95005.66;;;15.57;100.00
40245;BME280;25963;42.694;23.600;2022-09-12T03:30:36;94997.03;;;15.72;100.00
40245;BME280;25963;42.694;23.600;2022-09-12T03:33:01;94994.44;;;15.50;100.00
40245;BME280;25963;42.694;23.600;2022-09-12T03:35:26;94995.88;;;15.63;100.00
40245;BME280;25963;42.694;23.600;2022-09-12T03:37:52;95003.78;;;15.52;100.00
40245;BME280;25963;42.694;23.600;2022-09-12T03:40:17;95002.44;;;15.28;100.00
40245;BME280;25963;42.694;23.600;2022-09-12T03:42:43;95001.59;;;15.49;100.00
40245;BME280;25963;42.694;23.600;2022-09-12T03:45:09;95001.22;;;15.36;100.00
40245;BME280;25963;42.694;23.600;2022-09-12T03:47:34;95008.09;;;15.64;100.00
40245;BME280;25963;42.694;23.600;2022-09-12T03:49:59;95007.63;;;15.40;100.00
40245;BME280;25963;42.694;23.600;2022-09-12T03:52:25;95009.91;;;15.58;100.00
40245;BME280;25963;42.694;23.600;2022-09-12T03:54:50;95009.16;;;15.63;100.00
40245;BME280;25963;42.694;23.600;2022-09-12T03:57:16;95007.41;;;15.46;100.00
40245;BME280;25963;42.694;23.600;2022-09-12T03:59:41;95002.00;;;15.36;100.00
40245;BME280;25963;42.694;23.600;2022-09-12T04:02:06;95012.94;;;15.40;100.00
40245;BME280;25963;42.694;23.600;2022-09-12T04:04:33;95011.97;;;15.51;100.00
40245;BME280;25963;42.694;23.600;2022-09-12T04:06:59;95018.31;;;15.45;100.00
40245;BME280;25963;42.694;23.600;2022-09-12T04:09:24;95015.78;;;15.33;100.00
40245;BME280;25963;42.694;23.600;2022-09-12T04:11:49;95017.75;;;15.43;100.00
40245;BME280;25963;42.694;23.600;2022-09-12T04:14:15;95019.03;;;15.40;100.00
40245;BME280;25963;42.694;23.600;2022-09-12T04:16:40;95021.75;;;15.45;100.00
40245;BME280;25963;42.694;23.600;2022-09-12T04:19:05;95017.38;;;15.34;100.00
40245;BME280;25963;42.694;23.600;2022-09-12T04:21:30;95015.28;;;15.36;100.00
40245;BME280;25963;42.694;23.600;2022-09-12T04:23:56;95014.22;;;15.10;100.00
40245;BME280;25963;42.694;23.600;2022-09-12T04:26:21;95023.16;;;15.26;100.00
40245;BME280;25963;42.694;23.600;2022-09-12T04:28:47;95023.97;;;15.26;100.00
40245;BME280;25963;42.694;23.600;2022-09-12T04:31:16;95019.19;;;15.28;100.00
40245;BME280;25963;42.694;23.600;2022-09-12T04:33:43;95029.22;;;15.21;100.00
40245;BME280;25963;42.694;23.600;2022-09-12T04:36:09;95029.53;;;15.25;100.00
40245;BME280;25963;42.694;23.600;2022-09-12T04:38:35;95028.72;;;15.24;100.00
40245;BME280;25963;42.694;23.600;2022-09-12T04:41:00;95018.50;;;15.38;100.00
40245;BME280;25963;42.694;23.600;2022-09-12T04:43:26;95023.69;;;15.77;100.00
40245;BME280;25963;42.694;23.600;2022-09-12T04:45:51;95028.69;;;16.43;100.00
40245;BME280;25963;42.694;23.600;2022-09-12T04:48:16;95027.56;;;17.44;95.25
40245;BME280;25963;42.694;23.600;2022-09-12T04:50:41;95022.56;;;18.30;88.82
40245;BME280;25963;42.694;23.600;2022-09-12T04:53:07;95032.16;;;19.36;82.90
40245;BME280;25963;42.694;23.600;2022-09-12T04:55:32;95029.13;;;19.53;79.12
40245;BME280;25963;42.694;23.600;2022-09-12T04:57:58;95030.63;;;19.75;77.02
40245;BME280;25963;42.694;23.600;2022-09-12T05:00:24;95025.00;;;20.40;73.58
40245;BME280;25963;42.694;23.600;2022-09-12T05:02:49;95022.81;;;21.00;71.89
40245;BME280;25963;42.694;23.600;2022-09-12T05:05:15;95022.94;;;21.57;67.58
40245;BME280;25963;42.694;23.600;2022-09-12T05:07:41;95019.66;;;22.17;64.15
40245;BME280;25963;42.694;23.600;2022-09-12T05:10:06;95012.91;;;22.79;61.04
40245;BME280;25963;42.694;23.600;2022-09-12T05:12:32;95020.06;;;22.84;60.75
40245;BME280;25963;42.694;23.600;2022-09-12T05:14:57;95019.25;;;22.84;59.92
40245;BME280;25963;42.694;23.600;2022-09-12T05:17:23;95019.00;;;22.39;61.66
40245;BME280;25963;42.694;23.600;2022-09-12T05:19:48;95026.34;;;22.33;63.59
40245;BME280;25963;42.694;23.600;2022-09-12T05:22:13;95033.03;;;22.36;62.24
40245;BME280;25963;42.694;23.600;2022-09-12T05:24:39;95033.25;;;21.45;64.75
40245;BME280;25963;42.694;23.600;2022-09-12T05:27:07;95023.94;;;21.42;66.11
40245;BME280;25963;42.694;23.600;2022-09-12T05:29:32;95021.81;;;21.96;65.39
40245;BME280;25963;42.694;23.600;2022-09-12T05:31:58;95027.94;;;22.15;63.35
40245;BME280;25963;42.694;23.600;2022-09-12T05:34:23;95018.31;;;22.14;63.11
40245;BME280;25963;42.694;23.600;2022-09-12T05:36:48;95023.53;;;22.05;61.73
40245;BME280;25963;42.694;23.600;2022-09-12T05:39:14;95019.63;;;22.63;59.78
40245;BME280;25963;42.694;23.600;2022-09-12T05:41:39;95022.75;;;22.84;61.00
40245;BME280;25963;42.694;23.600;2022-09-12T05:44:05;95022.88;;;22.32;60.69
40245;BME280;25963;42.694;23.600;2022-09-12T05:46:34;95029.06;;;22.14;64.02
40245;BME280;25963;42.694;23.600;2022-09-12T05:49:07;95023.34;;;21.83;65.61
40245;BME280;25963;42.694;23.600;2022-09-12T05:51:33;95029.81;;;21.63;65.54
40245;BME280;25963;42.694;23.600;2022-09-12T05:54:01;95025.50;;;22.00;69.02
40245;BME280;25963;42.694;23.600;2022-09-12T05:56:28;95023.09;;;22.50;64.89
40245;BME280;25963;42.694;23.600;2022-09-12T05:58:59;95028.44;;;22.83;63.92
40245;BME280;25963;42.694;23.600;2022-09-12T06:01:26;95016.06;;;22.68;62.07
40245;BME280;25963;42.694;23.600;2022-09-12T06:03:52;95003.13;;;23.11;61.89
40245;BME280;25963;42.694;23.600;2022-09-12T06:06:19;95015.84;;;23.47;60.63
40245;BME280;25963;42.694;23.600;2022-09-12T06:08:47;95009.66;;;23.60;58.80
40245;BME280;25963;42.694;23.600;2022-09-12T06:11:13;94995.84;;;23.26;58.77
40245;BME280;25963;42.694;23.600;2022-09-12T06:13:40;95002.91;;;23.49;60.09
40245;BME280;25963;42.694;23.600;2022-09-12T06:18:32;95001.53;;;23.24;58.04
40245;BME280;25963;42.694;23.600;2022-09-12T06:21:01;95003.97;;;22.98;63.72
40245;BME280;25963;42.694;23.600;2022-09-12T06:23:27;95011.41;;;23.29;61.91
40245;BME280;25963;42.694;23.600;2022-09-12T06:25:53;95008.28;;;22.94;57.89
40245;BME280;25963;42.694;23.600;2022-09-12T06:28:19;95002.25;;;23.16;63.78
40245;BME280;25963;42.694;23.600;2022-09-12T06:30:47;95016.84;;;22.68;60.23
40245;BME280;25963;42.694;23.600;2022-09-12T06:33:13;95012.78;;;22.71;63.36
40245;BME280;25963;42.694;23.600;2022-09-12T06:35:38;95009.22;;;22.29;65.38
40245;BME280;25963;42.694;23.600;2022-09-12T06:38:04;95009.56;;;22.55;66.73
40245;BME280;25963;42.694;23.600;2022-09-12T06:40:30;95013.63;;;22.52;65.72
40245;BME280;25963;42.694;23.600;2022-09-12T06:42:57;95013.66;;;22.66;66.53
40245;BME280;25963;42.694;23.600;2022-09-12T06:45:24;95022.03;;;21.99;65.30
40245;BME280;25963;42.694;23.600;2022-09-12T06:47:50;95027.69;;;21.41;68.70
40245;BME280;25963;42.694;23.600;2022-09-12T06:50:15;95029.56;;;21.59;68.21
40245;BME280;25963;42.694;23.600;2022-09-12T06:52:41;95027.50;;;21.32;73.17
40245;BME280;25963;42.694;23.600;2022-09-12T06:55:06;95024.31;;;21.30;69.76
40245;BME280;25963;42.694;23.600;2022-09-12T06:57:31;95024.78;;;21.56;73.19
40245;BME280;25963;42.694;23.600;2022-09-12T07:00:01;95028.41;;;21.47;73.29
40245;BME280;25963;42.694;23.600;2022-09-12T07:02:26;95029.78;;;21.44;71.79
40245;BME280;25963;42.694;23.600;2022-09-12T07:04:51;95022.19;;;21.51;76.56
40245;BME280;25963;42.694;23.600;2022-09-12T07:07:17;95023.00;;;21.52;74.11
40245;BME280;25963;42.694;23.600;2022-09-12T07:09:42;95020.09;;;21.48;73.97
40245;BME280;25963;42.694;23.600;2022-09-12T07:12:08;95023.47;;;21.92;73.85
40245;BME280;25963;42.694;23.600;2022-09-12T07:14:33;95020.88;;;21.49;72.43
40245;BME280;25963;42.694;23.600;2022-09-12T07:16:59;95026.84;;;21.46;69.75
40245;BME280;25963;42.694;23.600;2022-09-12T07:19:24;95017.19;;;21.82;75.43
40245;BME280;25963;42.694;23.600;2022-09-12T07:21:49;95021.69;;;21.87;77.19
40245;BME280;25963;42.694;23.600;2022-09-12T07:24:14;95027.38;;;22.18;67.88
40245;BME280;25963;42.694;23.600;2022-09-12T07:26:40;95028.25;;;21.95;75.66
40245;BME280;25963;42.694;23.600;2022-09-12T07:29:06;95025.00;;;21.98;70.90
40245;BME280;25963;42.694;23.600;2022-09-12T07:31:34;95031.22;;;22.12;70.68
40245;BME280;25963;42.694;23.600;2022-09-12T07:33:59;95020.75;;;21.78;70.50
40245;BME280;25963;42.694;23.600;2022-09-12T07:36:28;95019.41;;;21.94;67.79
40245;BME280;25963;42.694;23.600;2022-09-12T07:38:54;95022.81;;;22.00;73.57
40245;BME280;25963;42.694;23.600;2022-09-12T07:41:22;95022.34;;;22.30;68.49
40245;BME280;25963;42.694;23.600;2022-09-12T07:43:52;95014.25;;;21.98;67.32
40245;BME280;25963;42.694;23.600;2022-09-12T07:46:17;95017.69;;;21.84;69.18
40245;BME280;25963;42.694;23.600;2022-09-12T07:53:09;95015.88;;;21.99;68.06
40245;BME280;25963;42.694;23.600;2022-09-12T07:55:35;95016.56;;;22.04;65.19
40245;BME280;25963;42.694;23.600;2022-09-12T08:25:31;95037.44;;;20.60;68.76
40245;BME280;25963;42.694;23.600;2022-09-12T08:30:45;95009.88;;;21.26;70.05
40245;BME280;25963;42.694;23.600;2022-09-12T08:33:11;95005.84;;;21.48;69.59
40245;BME280;25963;42.694;23.600;2022-09-12T08:35:36;95004.28;;;21.23;73.53
40245;BME280;25963;42.694;23.600;2022-09-12T08:38:01;95005.50;;;21.54;66.42
40245;BME280;25963;42.694;23.600;2022-09-12T08:40:27;94996.47;;;22.02;68.43
40245;BME280;25963;42.694;23.600;2022-09-12T08:43:02;94996.13;;;22.41;64.45
40245;BME280;25963;42.694;23.600;2022-09-12T08:45:39;94998.00;;;22.41;62.15
40245;BME280;25963;42.694;23.600;2022-09-12T08:48:08;95000.06;;;22.30;61.34
40245;BME280;25963;42.694;23.600;2022-09-12T08:50:35;94993.81;;;22.48;67.99
40245;BME280;25963;42.694;23.600;2022-09-12T08:53:09;94985.88;;;22.85;70.07
40245;BME280;25963;42.694;23.600;2022-09-12T08:56:06;94991.75;;;22.73;64.76
40245;BME280;25963;42.694;23.600;2022-09-12T08:58:39;94969.88;;;22.79;63.07
40245;BME280;25963;42.694;23.600;2022-09-12T09:04:14;94987.31;;;23.10;58.80
40245;BME280;25963;42.694;23.600;2022-09-12T09:07:44;94985.81;;;23.04;58.40
40245;BME280;25963;42.694;23.600;2022-09-12T09:18:11;94978.69;;;23.35;55.70
40245;BME280;25963;42.694;23.600;2022-09-12T09:20:48;94974.94;;;23.22;58.06
40245;BME280;25963;42.694;23.600;2022-09-12T09:26:00;94961.25;;;23.33;57.69
40245;BME280;25963;42.694;23.600;2022-09-12T09:31:02;94969.34;;;22.50;58.04
40245;BME280;25963;42.694;23.600;2022-09-12T09:33:33;94963.69;;;22.65;61.95
40245;BME280;25963;42.694;23.600;2022-09-12T09:43:43;94958.53;;;23.46;56.59
40245;BME280;25963;42.694;23.600;2022-09-12T09:46:08;94960.78;;;23.03;59.02
40245;BME280;25963;42.694;23.600;2022-09-12T09:48:39;94965.50;;;22.97;59.72
40245;BME280;25963;42.694;23.600;2022-09-12T09:51:06;94962.88;;;23.06;58.14
40245;BME280;25963;42.694;23.600;2022-09-12T09:53:49;94961.06;;;23.29;53.25
40245;BME280;25963;42.694;23.600;2022-09-12T09:58:51;94960.47;;;22.91;57.03
40245;BME280;25963;42.694;23.600;2022-09-12T10:01:17;94962.47;;;22.58;55.52
40245;BME280;25963;42.694;23.600;2022-09-12T10:06:24;94950.28;;;23.29;58.77
40245;BME280;25963;42.694;23.600;2022-09-12T10:08:50;94952.03;;;23.11;56.75
40245;BME280;25963;42.694;23.600;2022-09-12T10:11:21;94952.44;;;23.55;56.20
40245;BME280;25963;42.694;23.600;2022-09-12T10:16:21;94956.34;;;23.49;56.00
40245;BME280;25963;42.694;23.600;2022-09-12T10:18:48;94949.44;;;23.06;51.61
40245;BME280;25963;42.694;23.600;2022-09-12T10:26:26;94948.91;;;22.21;56.06
40245;BME280;25963;42.694;23.600;2022-09-12T10:28:56;94941.59;;;22.68;60.76
40245;BME280;25963;42.694;23.600;2022-09-12T10:31:27;94950.75;;;22.53;55.76
40245;BME280;25963;42.694;23.600;2022-09-12T10:33:56;94955.84;;;22.22;53.86
40245;BME280;25963;42.694;23.600;2022-09-12T10:36:23;94947.84;;;22.50;57.18
40245;BME280;25963;42.694;23.600;2022-09-12T10:38:54;94958.91;;;22.62;53.30
40245;BME280;25963;42.694;23.600;2022-09-12T10:41:21;94949.53;;;22.60;55.50
40245;BME280;25963;42.694;23.600;2022-09-12T10:43:47;94950.53;;;22.50;55.63
40245;BME280;25963;42.694;23.600;2022-09-12T10:48:38;94952.16;;;21.85;54.77
40245;BME280;25963;42.694;23.600;2022-09-12T10:51:04;94953.28;;;21.98;57.55
40245;BME280;25963;42.694;23.600;2022-09-12T10:53:40;94953.41;;;21.74;57.33
40245;BME280;25963;42.694;23.600;2022-09-12T10:56:18;94953.13;;;21.19;58.29
40245;BME280;25963;42.694;23.600;2022-09-12T11:04:28;94943.38;;;21.23;56.96
40245;BME280;25963;42.694;23.600;2022-09-12T11:16:29;94939.66;;;20.81;55.21
40245;BME280;25963;42.694;23.600;2022-09-12T11:19:46;94947.91;;;20.61;56.86
40245;BME280;25963;42.694;23.600;2022-09-12T11:22:58;94934.63;;;20.74;58.21
40245;BME280;25963;42.694;23.600;2022-09-12T11:25:45;94938.81;;;21.05;57.97
40245;BME280;25963;42.694;23.600;2022-09-12T11:33:41;94941.94;;;21.12;56.84
40245;BME280;25963;42.694;23.600;2022-09-12T11:36:38;94947.75;;;21.19;56.96
40245;BME280;25963;42.694;23.600;2022-09-12T11:39:16;94939.91;;;21.23;56.10
40245;BME280;25963;42.694;23.600;2022-09-12T11:41:51;94942.94;;;20.97;54.78
40245;BME280;25963;42.694;23.600;2022-09-12T11:46:45;94940.22;;;20.78;54.93
40245;BME280;25963;42.694;23.600;2022-09-12T11:51:54;94940.97;;;20.84;53.30
40245;BME280;25963;42.694;23.600;2022-09-12T11:57:13;94943.28;;;20.90;54.21
40245;BME280;25963;42.694;23.600;2022-09-12T11:59:53;94940.78;;;20.75;53.36
40245;BME280;25963;42.694;23.600;2022-09-12T12:02:26;94943.19;;;20.77;55.63
40245;BME280;25963;42.694;23.600;2022-09-12T12:05:14;94934.13;;;21.34;57.43
40245;BME280;25963;42.694;23.600;2022-09-12T12:08:07;94923.72;;;21.84;54.96
40245;BME280;25963;42.694;23.600;2022-09-12T12:10:39;94921.25;;;22.21;52.86
40245;BME280;25963;42.694;23.600;2022-09-12T12:13:15;94910.72;;;22.38;51.81
40245;BME280;25963;42.694;23.600;2022-09-12T12:15:47;94925.81;;;22.34;48.85
40245;BME280;25963;42.694;23.600;2022-09-12T12:18:28;94922.09;;;22.16;52.10
40245;BME280;25963;42.694;23.600;2022-09-12T12:21:28;94915.06;;;22.20;52.41
40245;BME280;25963;42.694;23.600;2022-09-12T12:29:12;94909.09;;;22.92;49.74
40245;BME280;25963;42.694;23.600;2022-09-12T12:34:44;94900.19;;;23.19;45.47
40245;BME280;25963;42.694;23.600;2022-09-12T12:47:43;94902.09;;;23.19;50.04
40245;BME280;25963;42.694;23.600;2022-09-12T12:55:37;94905.09;;;23.17;48.49
40245;BME280;25963;42.694;23.600;2022-09-12T13:01:02;94903.06;;;23.23;45.33
40245;BME280;25963;42.694;23.600;2022-09-12T13:03:30;94900.75;;;23.30;46.91
40245;BME280;25963;42.694;23.600;2022-09-12T13:06:01;94895.34;;;22.94;45.99
40245;BME280;25963;42.694;23.600;2022-09-12T13:08:57;94909.41;;;22.63;47.57
40245;BME280;25963;42.694;23.600;2022-09-12T13:12:04;94901.34;;;22.49;49.73
40245;BME280;25963;42.694;23.600;2022-09-12T13:17:17;94916.50;;;22.59;49.21
40245;BME280;25963;42.694;23.600;2022-09-12T13:19:44;94914.41;;;22.56;49.76
40245;BME280;25963;42.694;23.600;2022-09-12T13:22:10;94915.09;;;22.62;48.81
40245;BME280;25963;42.694;23.600;2022-09-12T13:24:46;94911.78;;;22.37;47.29
40245;BME280;25963;42.694;23.600;2022-09-12T13:27:20;94907.31;;;21.86;50.40
40245;BME280;25963;42.694;23.600;2022-09-12T13:29:46;94906.38;;;21.77;51.12
40245;BME280;25963;42.694;23.600;2022-09-12T13:32:12;94906.09;;;21.78;50.10
40245;BME280;25963;42.694;23.600;2022-09-12T13:35:01;94909.44;;;21.70;51.12
40245;BME280;25963;42.694;23.600;2022-09-12T13:42:47;94904.66;;;22.00;50.74
40245;BME280;25963;42.694;23.600;2022-09-12T13:45:22;94911.34;;;22.02;49.38
40245;BME280;25963;42.694;23.600;2022-09-12T13:47:51;94903.97;;;21.42;49.15
40245;BME280;25963;42.694;23.600;2022-09-12T13:50:30;94901.56;;;21.22;50.76
40245;BME280;25963;42.694;23.600;2022-09-12T13:53:00;94904.66;;;21.29;49.67
40245;BME280;25963;42.694;23.600;2022-09-12T13:55:29;94906.78;;;20.94;49.67
40245;BME280;25963;42.694;23.600;2022-09-12T13:58:23;94899.25;;;20.54;50.29
40245;BME280;25963;42.694;23.600;2022-09-12T14:01:11;94903.78;;;20.29;52.60
40245;BME280;25963;42.694;23.600;2022-09-12T14:03:46;94912.78;;;20.38;52.77
40245;BME280;25963;42.694;23.600;2022-09-12T14:06:51;94911.88;;;20.24;52.70
40245;BME280;25963;42.694;23.600;2022-09-12T14:09:38;94907.25;;;20.29;52.78
40245;BME280;25963;42.694;23.600;2022-09-12T14:12:13;94908.63;;;20.27;54.51
40245;BME280;25963;42.694;23.600;2022-09-12T14:14:46;94919.66;;;20.20;55.21
40245;BME280;25963;42.694;23.600;2022-09-12T14:17:21;94927.06;;;20.04;56.47
40245;BME280;25963;42.694;23.600;2022-09-12T14:19:48;94921.22;;;19.97;57.38
40245;BME280;25963;42.694;23.600;2022-09-12T14:22:14;94927.28;;;20.08;56.91
40245;BME280;25963;42.694;23.600;2022-09-12T14:24:49;94931.94;;;19.97;57.62
40245;BME280;25963;42.694;23.600;2022-09-12T14:27:22;94926.56;;;19.97;58.84
40245;BME280;25963;42.694;23.600;2022-09-12T14:29:56;94927.75;;;19.86;59.24
40245;BME280;25963;42.694;23.600;2022-09-12T14:32:24;94926.75;;;19.77;60.00
40245;BME280;25963;42.694;23.600;2022-09-12T14:35:18;94927.06;;;19.75;58.93
40245;BME280;25963;42.694;23.600;2022-09-12T14:37:48;94930.97;;;19.83;59.86
40245;BME280;25963;42.694;23.600;2022-09-12T14:40:16;94920.25;;;19.88;59.30
40245;BME280;25963;42.694;23.600;2022-09-12T14:42:43;94929.34;;;19.87;58.10
40245;BME280;25963;42.694;23.600;2022-09-12T14:45:29;94925.94;;;20.11;58.55
40245;BME280;25963;42.694;23.600;2022-09-12T14:47:56;94917.56;;;20.41;56.67
40245;BME280;25963;42.694;23.600;2022-09-12T14:50:27;94919.59;;;20.55;57.08
40245;BME280;25963;42.694;23.600;2022-09-12T14:53:10;94912.97;;;20.71;55.78
40245;BME280;25963;42.694;23.600;2022-09-12T14:56:07;94918.94;;;21.06;56.09
40245;BME280;25963;42.694;23.600;2022-09-12T14:58:34;94913.34;;;20.83;57.28
40245;BME280;25963;42.694;23.600;2022-09-12T15:08:44;94923.69;;;20.71;56.93
40245;BME280;25963;42.694;23.600;2022-09-12T15:11:10;94911.81;;;20.77;56.99
40245;BME280;25963;42.694;23.600;2022-09-12T15:13:40;94918.34;;;20.71;56.88
40245;BME280;25963;42.694;23.600;2022-09-12T15:16:10;94921.78;;;20.52;57.63
40245;BME280;25963;42.694;23.600;2022-09-12T15:18:36;94920.41;;;20.55;56.71
40245;BME280;25963;42.694;23.600;2022-09-12T15:21:04;94925.00;;;20.49;55.92
40245;BME280;25963;42.694;23.600;2022-09-12T15:23:40;94923.88;;;20.56;57.34
40245;BME280;25963;42.694;23.600;2022-09-12T15:26:19;94924.47;;;20.47;56.67
40245;BME280;25963;42.694;23.600;2022-09-12T15:28:45;94932.19;;;20.25;57.92
40245;BME280;25963;42.694;23.600;2022-09-12T15:31:29;94936.69;;;20.05;57.97
40245;BME280;25963;42.694;23.600;2022-09-12T15:33:56;94933.78;;;20.02;60.05
40245;BME280;25963;42.694;23.600;2022-09-12T15:36:23;94937.50;;;20.01;60.18
40245;BME280;25963;42.694;23.600;2022-09-12T15:38:50;94943.34;;;19.79;60.42
40245;BME280;25963;42.694;23.600;2022-09-12T15:41:22;94936.97;;;19.75;60.70
40245;BME280;25963;42.694;23.600;2022-09-12T15:43:48;94932.19;;;19.67;62.53
40245;BME280;25963;42.694;23.600;2022-09-12T15:46:15;94933.75;;;19.73;62.63
40245;BME280;25963;42.694;23.600;2022-09-12T15:48:41;94928.50;;;19.57;63.59
40245;BME280;25963;42.694;23.600;2022-09-12T15:51:12;94931.34;;;19.32;63.93
40245;BME280;25963;42.694;23.600;2022-09-12T15:53:37;94936.22;;;19.20;62.75
40245;BME280;25963;42.694;23.600;2022-09-12T15:56:03;94934.88;;;19.22;64.93
40245;BME280;25963;42.694;23.600;2022-09-12T15:58:28;94933.00;;;19.23;63.72
40245;BME280;25963;42.694;23.600;2022-09-12T16:00:54;94929.56;;;19.17;64.20
40245;BME280;25963;42.694;23.600;2022-09-12T16:03:25;94935.19;;;19.15;64.32
40245;BME280;25963;42.694;23.600;2022-09-12T16:05:56;94941.63;;;19.14;64.41
40245;BME280;25963;42.694;23.600;2022-09-12T16:08:22;94939.63;;;18.91;63.84
40245;BME280;25963;42.694;23.600;2022-09-12T16:10:52;94940.66;;;18.90;65.73
40245;BME280;25963;42.694;23.600;2022-09-12T16:13:18;94942.31;;;18.81;65.90
40245;BME280;25963;42.694;23.600;2022-09-12T16:15:43;94947.41;;;18.77;67.01
40245;BME280;25963;42.694;23.600;2022-09-12T16:18:09;94942.88;;;18.73;66.72
40245;BME280;25963;42.694;23.600;2022-09-12T16:20:34;94940.44;;;18.81;66.70
40245;BME280;25963;42.694;23.600;2022-09-12T16:23:00;94944.72;;;18.72;67.92
40245;BME280;25963;42.694;23.600;2022-09-12T16:25:26;94945.00;;;18.81;66.83